sensor_id;sensor_type;location;lat;lon;timestamp;pressure;altitude;pressure_sealevel;temperature;humidity
34297;BME280;20564;42.902;25.336;2023-07-08T00:01:18;97244.66;;;19.74;100.00
34297;BME280;20564;42.902;25.336;2023-07-08T00:03:46;97242.59;;;19.69;100.00
34297;BME280;20564;42.902;25.336;2023-07-08T00:06:19;97254.22;;;19.62;100.00
34297;BME280;20564;42.902;25.336;2023-07-08T00:08:46;97253.09;;;19.71;100.00
34297;BME280;20564;42.902;25.336;2023-07-08T00:11:17;97262.72;;;19.72;100.00
34297;BME280;20564;42.902;25.336;2023-07-08T00:13:44;97254.09;;;19.70;100.00
34297;BME280;20564;42.902;25.336;2023-07-08T00:16:12;97254.09;;;19.70;100.00
34297;BME280;20564;42.902;25.336;2023-07-08T00:18:43;97263.91;;;19.63;100.00
34297;BME280;20564;42.902;25.336;2023-07-08T00:21:11;97267.22;;;19.65;100.00
34297;BME280;20564;42.902;25.336;2023-07-08T00:23:49;97274.56;;;19.63;100.00
34297;BME280;20564;42.902;25.336;2023-07-08T00:26:25;97269.50;;;19.68;100.00
34297;BME280;20564;42.902;25.336;2023-07-08T00:28:54;97276.47;;;19.69;100.00
34297;BME280;20564;42.902;25.336;2023-07-08T00:31:21;97265.59;;;19.70;100.00
34297;BME280;20564;42.902;25.336;2023-07-08T00:33:52;97269.72;;;19.73;100.00
34297;BME280;20564;42.902;25.336;2023-07-08T00:36:25;97269.94;;;19.71;100.00
34297;BME280;20564;42.902;25.336;2023-07-08T00:38:53;97270.75;;;19.72;100.00
34297;BME280;20564;42.902;25.336;2023-07-08T00:41:30;97272.22;;;19.74;100.00
34297;BME280;20564;42.902;25.336;2023-07-08T00:43:59;97275.72;;;19.82;100.00
34297;BME280;20564;42.902;25.336;2023-07-08T00:52:17;97277.56;;;19.81;100.00
34297;BME280;20564;42.902;25.336;2023-07-08T00:54:46;97273.91;;;19.82;100.00
34297;BME280;20564;42.902;25.336;2023-07-08T00:57:15;97274.66;;;19.76;100.00
34297;BME280;20564;42.902;25.336;2023-07-08T00:59:48;97275.50;;;19.77;100.00
34297;BME280;20564;42.902;25.336;2023-07-08T01:02:18;97274.28;;;19.79;100.00
34297;BME280;20564;42.902;25.336;2023-07-08T01:04:55;97281.28;;;19.80;100.00
34297;BME280;20564;42.902;25.336;2023-07-08T01:07:25;97280.88;;;19.83;100.00
34297;BME280;20564;42.902;25.336;2023-07-08T01:10:01;97278.81;;;19.85;100.00
34297;BME280;20564;42.902;25.336;2023-07-08T01:12:36;97277.81;;;19.86;100.00
34297;BME280;20564;42.902;25.336;2023-07-08T01:15:05;97278.03;;;19.91;100.00
34297;BME280;20564;42.902;25.336;2023-07-08T01:17:33;97265.72;;;19.90;100.00
34297;BME280;20564;42.902;25.336;2023-07-08T01:20:00;97275.59;;;19.90;100.00
34297;BME280;20564;42.902;25.336;2023-07-08T01:22:36;97262.00;;;19.91;100.00
34297;BME280;20564;42.902;25.336;2023-07-08T01:25:04;97257.50;;;19.92;100.00
34297;BME280;20564;42.902;25.336;2023-07-08T01:27:37;97254.44;;;19.95;100.00
34297;BME280;20564;42.902;25.336;2023-07-08T01:30:05;97257.31;;;19.93;100.00
34297;BME280;20564;42.902;25.336;2023-07-08T01:32:37;97261.19;;;19.91;100.00
34297;BME280;20564;42.902;25.336;2023-07-08T01:35:08;97257.44;;;19.85;100.00
34297;BME280;20564;42.902;25.336;2023-07-08T01:37:39;97256.06;;;19.89;100.00
34297;BME280;20564;42.902;25.336;2023-07-08T01:40:22;97250.84;;;19.81;100.00
34297;BME280;20564;42.902;25.336;2023-07-08T01:42:50;97250.25;;;19.79;100.00
34297;BME280;20564;42.902;25.336;2023-07-08T01:45:19;97250.03;;;19.81;100.00
34297;BME280;20564;42.902;25.336;2023-07-08T01:48:00;97254.94;;;19.77;100.00
34297;BME280;20564;42.902;25.336;2023-07-08T01:50:27;97248.56;;;19.78;100.00
34297;BME280;20564;42.902;25.336;2023-07-08T01:52:58;97253.69;;;19.73;100.00
34297;BME280;20564;42.902;25.336;2023-07-08T01:55:27;97238.06;;;19.70;100.00
34297;BME280;20564;42.902;25.336;2023-07-08T01:57:57;97234.81;;;19.74;100.00
34297;BME280;20564;42.902;25.336;2023-07-08T02:00:24;97226.97;;;19.73;100.00
34297;BME280;20564;42.902;25.336;2023-07-08T02:02:51;97223.06;;;19.69;100.00
34297;BME280;20564;42.902;25.336;2023-07-08T02:05:18;97240.50;;;19.65;100.00
34297;BME280;20564;42.902;25.336;2023-07-08T02:07:45;97240.22;;;19.60;100.00
34297;BME280;20564;42.902;25.336;2023-07-08T02:10:12;97234.25;;;19.58;100.00
34297;BME280;20564;42.902;25.336;2023-07-08T02:12:39;97252.31;;;19.56;100.00
34297;BME280;20564;42.902;25.336;2023-07-08T02:15:07;97250.06;;;19.59;100.00
34297;BME280;20564;42.902;25.336;2023-07-08T02:17:35;97264.78;;;19.48;100.00
34297;BME280;20564;42.902;25.336;2023-07-08T02:20:02;97265.22;;;19.45;100.00
34297;BME280;20564;42.902;25.336;2023-07-08T02:22:30;97270.28;;;19.40;100.00
34297;BME280;20564;42.902;25.336;2023-07-08T02:24:57;97273.53;;;19.36;100.00
34297;BME280;20564;42.902;25.336;2023-07-08T02:27:24;97284.41;;;19.34;100.00
34297;BME280;20564;42.902;25.336;2023-07-08T02:29:51;97293.88;;;19.37;100.00
34297;BME280;20564;42.902;25.336;2023-07-08T02:32:18;97291.13;;;19.30;100.00
34297;BME280;20564;42.902;25.336;2023-07-08T02:34:45;97308.69;;;19.18;100.00
34297;BME280;20564;42.902;25.336;2023-07-08T02:37:12;97302.22;;;19.06;100.00
34297;BME280;20564;42.902;25.336;2023-07-08T02:39:39;97308.97;;;19.01;100.00
34297;BME280;20564;42.902;25.336;2023-07-08T02:42:06;97306.03;;;18.96;100.00
34297;BME280;20564;42.902;25.336;2023-07-08T02:44:33;97298.78;;;18.90;100.00
34297;BME280;20564;42.902;25.336;2023-07-08T02:46:59;97306.28;;;18.80;100.00
34297;BME280;20564;42.902;25.336;2023-07-08T02:49:27;97293.50;;;18.75;100.00
34297;BME280;20564;42.902;25.336;2023-07-08T02:51:54;97286.25;;;18.69;100.00
34297;BME280;20564;42.902;25.336;2023-07-08T02:54:21;97290.34;;;18.50;100.00
34297;BME280;20564;42.902;25.336;2023-07-08T02:56:48;97275.19;;;18.51;100.00
34297;BME280;20564;42.902;25.336;2023-07-08T02:59:14;97267.22;;;18.36;100.00
34297;BME280;20564;42.902;25.336;2023-07-08T03:01:41;97270.50;;;18.38;100.00
34297;BME280;20564;42.902;25.336;2023-07-08T03:04:09;97266.56;;;18.34;100.00
34297;BME280;20564;42.902;25.336;2023-07-08T03:06:43;97266.69;;;18.26;100.00
34297;BME280;20564;42.902;25.336;2023-07-08T03:09:12;97273.66;;;18.27;100.00
34297;BME280;20564;42.902;25.336;2023-07-08T03:11:40;97266.16;;;18.16;100.00
34297;BME280;20564;42.902;25.336;2023-07-08T03:14:07;97271.38;;;18.09;100.00
34297;BME280;20564;42.902;25.336;2023-07-08T03:16:34;97267.91;;;18.08;100.00
34297;BME280;20564;42.902;25.336;2023-07-08T03:19:02;97265.59;;;18.05;100.00
34297;BME280;20564;42.902;25.336;2023-07-08T03:21:29;97249.16;;;18.02;100.00
34297;BME280;20564;42.902;25.336;2023-07-08T03:23:56;97259.34;;;17.98;100.00
34297;BME280;20564;42.902;25.336;2023-07-08T03:26:25;97259.00;;;18.01;100.00
34297;BME280;20564;42.902;25.336;2023-07-08T03:28:55;97261.03;;;17.99;100.00
34297;BME280;20564;42.902;25.336;2023-07-08T03:31:22;97253.31;;;18.04;100.00
34297;BME280;20564;42.902;25.336;2023-07-08T03:33:49;97261.75;;;18.08;100.00
34297;BME280;20564;42.902;25.336;2023-07-08T03:36:19;97269.75;;;18.08;100.00
34297;BME280;20564;42.902;25.336;2023-07-08T03:38:51;97273.41;;;18.07;100.00
34297;BME280;20564;42.902;25.336;2023-07-08T03:41:18;97276.63;;;18.02;100.00
34297;BME280;20564;42.902;25.336;2023-07-08T03:43:45;97285.47;;;18.03;100.00
34297;BME280;20564;42.902;25.336;2023-07-08T03:46:17;97275.97;;;18.15;100.00
34297;BME280;20564;42.902;25.336;2023-07-08T03:48:44;97280.56;;;18.21;100.00
34297;BME280;20564;42.902;25.336;2023-07-08T03:51:22;97289.38;;;18.22;100.00
34297;BME280;20564;42.902;25.336;2023-07-08T03:53:50;97294.53;;;18.23;100.00
34297;BME280;20564;42.902;25.336;2023-07-08T03:56:18;97290.66;;;18.26;100.00
34297;BME280;20564;42.902;25.336;2023-07-08T03:58:48;97296.63;;;18.28;100.00
34297;BME280;20564;42.902;25.336;2023-07-08T04:01:17;97308.59;;;18.32;100.00
34297;BME280;20564;42.902;25.336;2023-07-08T04:03:44;97307.72;;;18.31;100.00
34297;BME280;20564;42.902;25.336;2023-07-08T04:06:11;97311.13;;;18.40;100.00
34297;BME280;20564;42.902;25.336;2023-07-08T04:08:38;97320.03;;;18.47;100.00
34297;BME280;20564;42.902;25.336;2023-07-08T04:11:06;97314.44;;;18.42;100.00
34297;BME280;20564;42.902;25.336;2023-07-08T04:13:33;97321.44;;;18.43;100.00
34297;BME280;20564;42.902;25.336;2023-07-08T04:16:02;97321.13;;;18.38;100.00
34297;BME280;20564;42.902;25.336;2023-07-08T04:18:30;97323.19;;;18.36;100.00
34297;BME280;20564;42.902;25.336;2023-07-08T04:20:57;97324.63;;;18.39;100.00
34297;BME280;20564;42.902;25.336;2023-07-08T04:23:27;97316.00;;;18.37;100.00
34297;BME280;20564;42.902;25.336;2023-07-08T04:25:56;97314.28;;;18.29;100.00
34297;BME280;20564;42.902;25.336;2023-07-08T04:28:24;97314.28;;;18.29;100.00
34297;BME280;20564;42.902;25.336;2023-07-08T04:30:51;97314.81;;;18.39;100.00
34297;BME280;20564;42.902;25.336;2023-07-08T04:33:18;97316.84;;;18.37;100.00
34297;BME280;20564;42.902;25.336;2023-07-08T04:35:48;97306.19;;;18.37;100.00
34297;BME280;20564;42.902;25.336;2023-07-08T04:38:19;97306.25;;;18.44;100.00
34297;BME280;20564;42.902;25.336;2023-07-08T04:40:49;97298.16;;;18.52;100.00
34297;BME280;20564;42.902;25.336;2023-07-08T04:43:18;97295.72;;;18.57;100.00
34297;BME280;20564;42.902;25.336;2023-07-08T04:45:51;97297.84;;;18.62;100.00
34297;BME280;20564;42.902;25.336;2023-07-08T04:48:20;97298.84;;;18.61;100.00
34297;BME280;20564;42.902;25.336;2023-07-08T04:50:52;97289.72;;;18.70;100.00
34297;BME280;20564;42.902;25.336;2023-07-08T04:53:19;97287.50;;;18.88;100.00
34297;BME280;20564;42.902;25.336;2023-07-08T04:55:49;97288.50;;;19.09;100.00
34297;BME280;20564;42.902;25.336;2023-07-08T04:58:17;97287.06;;;19.34;100.00
34297;BME280;20564;42.902;25.336;2023-07-08T05:00:44;97292.91;;;19.44;100.00
34297;BME280;20564;42.902;25.336;2023-07-08T05:03:11;97294.84;;;19.57;100.00
34297;BME280;20564;42.902;25.336;2023-07-08T05:05:38;97296.44;;;19.73;100.00
34297;BME280;20564;42.902;25.336;2023-07-08T05:08:08;97300.63;;;19.89;100.00
34297;BME280;20564;42.902;25.336;2023-07-08T05:10:35;97295.31;;;19.95;100.00
34297;BME280;20564;42.902;25.336;2023-07-08T05:13:05;97298.69;;;20.11;100.00
34297;BME280;20564;42.902;25.336;2023-07-08T05:15:32;97295.25;;;20.17;100.00
34297;BME280;20564;42.902;25.336;2023-07-08T05:17:59;97298.34;;;20.20;100.00
34297;BME280;20564;42.902;25.336;2023-07-08T05:20:26;97298.81;;;20.31;100.00
34297;BME280;20564;42.902;25.336;2023-07-08T05:22:53;97295.91;;;20.32;100.00
34297;BME280;20564;42.902;25.336;2023-07-08T05:25:20;97286.66;;;20.28;100.00
34297;BME280;20564;42.902;25.336;2023-07-08T05:27:50;97289.50;;;20.20;100.00
34297;BME280;20564;42.902;25.336;2023-07-08T05:30:18;97302.06;;;20.26;100.00
34297;BME280;20564;42.902;25.336;2023-07-08T05:32:45;97293.84;;;20.28;100.00
34297;BME280;20564;42.902;25.336;2023-07-08T05:35:12;97301.25;;;20.32;100.00
34297;BME280;20564;42.902;25.336;2023-07-08T05:37:40;97299.41;;;20.26;100.00
34297;BME280;20564;42.902;25.336;2023-07-08T05:40:08;97291.53;;;20.18;100.00
34297;BME280;20564;42.902;25.336;2023-07-08T05:42:35;97304.28;;;20.16;100.00
34297;BME280;20564;42.902;25.336;2023-07-08T05:45:03;97304.91;;;20.18;100.00
34297;BME280;20564;42.902;25.336;2023-07-08T05:47:30;97306.13;;;20.15;100.00
34297;BME280;20564;42.902;25.336;2023-07-08T05:49:57;97309.00;;;20.14;100.00
34297;BME280;20564;42.902;25.336;2023-07-08T05:52:24;97308.00;;;20.21;100.00
34297;BME280;20564;42.902;25.336;2023-07-08T05:54:50;97307.47;;;20.39;100.00
34297;BME280;20564;42.902;25.336;2023-07-08T05:57:17;97303.91;;;20.67;100.00
34297;BME280;20564;42.902;25.336;2023-07-08T05:59:44;97299.00;;;20.84;100.00
34297;BME280;20564;42.902;25.336;2023-07-08T06:02:12;97292.66;;;21.05;100.00
34297;BME280;20564;42.902;25.336;2023-07-08T06:04:40;97293.34;;;21.33;100.00
34297;BME280;20564;42.902;25.336;2023-07-08T06:07:07;97286.94;;;21.48;100.00
34297;BME280;20564;42.902;25.336;2023-07-08T06:09:34;97289.19;;;21.64;100.00
34297;BME280;20564;42.902;25.336;2023-07-08T06:12:01;97294.34;;;21.72;100.00
34297;BME280;20564;42.902;25.336;2023-07-08T06:14:28;97292.88;;;21.83;100.00
34297;BME280;20564;42.902;25.336;2023-07-08T06:16:55;97299.91;;;21.77;100.00
34297;BME280;20564;42.902;25.336;2023-07-08T06:19:22;97304.44;;;21.77;100.00
34297;BME280;20564;42.902;25.336;2023-07-08T06:21:49;97315.16;;;21.77;100.00
34297;BME280;20564;42.902;25.336;2023-07-08T06:24:16;97325.25;;;21.75;100.00
34297;BME280;20564;42.902;25.336;2023-07-08T06:26:43;97318.88;;;21.69;100.00
34297;BME280;20564;42.902;25.336;2023-07-08T06:29:10;97316.81;;;21.51;100.00
34297;BME280;20564;42.902;25.336;2023-07-08T06:31:37;97318.03;;;21.49;100.00
34297;BME280;20564;42.902;25.336;2023-07-08T06:34:04;97317.44;;;21.47;100.00
34297;BME280;20564;42.902;25.336;2023-07-08T06:36:31;97312.28;;;21.52;100.00
34297;BME280;20564;42.902;25.336;2023-07-08T06:38:58;97314.16;;;21.58;100.00
34297;BME280;20564;42.902;25.336;2023-07-08T06:41:25;97321.75;;;21.61;100.00
34297;BME280;20564;42.902;25.336;2023-07-08T06:43:52;97315.56;;;21.67;100.00
34297;BME280;20564;42.902;25.336;2023-07-08T06:46:19;97319.06;;;21.74;100.00
34297;BME280;20564;42.902;25.336;2023-07-08T06:48:49;97321.34;;;21.84;100.00
34297;BME280;20564;42.902;25.336;2023-07-08T06:51:16;97323.38;;;21.88;100.00
34297;BME280;20564;42.902;25.336;2023-07-08T06:53:43;97320.47;;;21.90;100.00
34297;BME280;20564;42.902;25.336;2023-07-08T06:56:10;97329.38;;;21.90;100.00
34297;BME280;20564;42.902;25.336;2023-07-08T06:58:37;97329.78;;;21.94;100.00
34297;BME280;20564;42.902;25.336;2023-07-08T07:01:04;97330.19;;;21.98;100.00
34297;BME280;20564;42.902;25.336;2023-07-08T07:03:31;97324.81;;;21.98;100.00
34297;BME280;20564;42.902;25.336;2023-07-08T07:05:58;97334.50;;;21.99;100.00
34297;BME280;20564;42.902;25.336;2023-07-08T07:08:25;97327.50;;;21.98;100.00
34297;BME280;20564;42.902;25.336;2023-07-08T07:10:52;97337.38;;;21.97;100.00
34297;BME280;20564;42.902;25.336;2023-07-08T07:13:19;97343.13;;;22.01;100.00
34297;BME280;20564;42.902;25.336;2023-07-08T07:15:49;97346.03;;;22.06;100.00
34297;BME280;20564;42.902;25.336;2023-07-08T07:18:18;97338.41;;;22.03;100.00
34297;BME280;20564;42.902;25.336;2023-07-08T07:20:50;97336.13;;;22.06;100.00
34297;BME280;20564;42.902;25.336;2023-07-08T07:23:17;97332.00;;;22.10;100.00
34297;BME280;20564;42.902;25.336;2023-07-08T07:25:45;97339.44;;;22.15;100.00
34297;BME280;20564;42.902;25.336;2023-07-08T07:28:18;97341.31;;;21.95;100.00
34297;BME280;20564;42.902;25.336;2023-07-08T07:30:56;97338.63;;;21.95;100.00
34297;BME280;20564;42.902;25.336;2023-07-08T07:33:23;97348.53;;;21.87;100.00
34297;BME280;20564;42.902;25.336;2023-07-08T07:35:50;97347.72;;;21.80;100.00
34297;BME280;20564;42.902;25.336;2023-07-08T07:38:17;97357.19;;;21.76;100.00
34297;BME280;20564;42.902;25.336;2023-07-08T07:40:45;97343.41;;;21.79;100.00
34297;BME280;20564;42.902;25.336;2023-07-08T07:43:12;97349.75;;;21.78;100.00
34297;BME280;20564;42.902;25.336;2023-07-08T07:45:39;97352.44;;;21.78;100.00
34297;BME280;20564;42.902;25.336;2023-07-08T07:48:06;97346.47;;;21.83;100.00
34297;BME280;20564;42.902;25.336;2023-07-08T07:50:33;97343.19;;;21.87;100.00
34297;BME280;20564;42.902;25.336;2023-07-08T07:53:02;97354.31;;;21.91;100.00
34297;BME280;20564;42.902;25.336;2023-07-08T07:55:29;97348.31;;;21.82;100.00
34297;BME280;20564;42.902;25.336;2023-07-08T07:57:56;97351.81;;;21.89;100.00
34297;BME280;20564;42.902;25.336;2023-07-08T08:00:23;97341.50;;;21.86;100.00
34297;BME280;20564;42.902;25.336;2023-07-08T08:02:49;97355.75;;;21.87;100.00
34297;BME280;20564;42.902;25.336;2023-07-08T08:05:16;97351.00;;;21.89;100.00
34297;BME280;20564;42.902;25.336;2023-07-08T08:07:43;97353.47;;;21.90;100.00
34297;BME280;20564;42.902;25.336;2023-07-08T08:10:11;97356.16;;;21.90;100.00
34297;BME280;20564;42.902;25.336;2023-07-08T08:12:38;97356.75;;;22.06;100.00
34297;BME280;20564;42.902;25.336;2023-07-08T08:15:20;97359.81;;;22.29;100.00
34297;BME280;20564;42.902;25.336;2023-07-08T08:17:47;97357.03;;;22.56;100.00
34297;BME280;20564;42.902;25.336;2023-07-08T08:20:16;97358.16;;;22.86;100.00
34297;BME280;20564;42.902;25.336;2023-07-08T08:22:43;97344.81;;;23.18;97.10
34297;BME280;20564;42.902;25.336;2023-07-08T08:25:10;97340.13;;;23.64;97.22
34297;BME280;20564;42.902;25.336;2023-07-08T08:27:37;97338.66;;;23.93;91.07
34297;BME280;20564;42.902;25.336;2023-07-08T08:30:05;97339.13;;;24.08;95.12
34297;BME280;20564;42.902;25.336;2023-07-08T08:32:32;97345.88;;;24.17;94.62
34297;BME280;20564;42.902;25.336;2023-07-08T08:34:59;97346.44;;;24.19;91.54
34297;BME280;20564;42.902;25.336;2023-07-08T08:37:28;97344.44;;;24.15;90.27
34297;BME280;20564;42.902;25.336;2023-07-08T08:39:55;97345.75;;;24.05;91.08
34297;BME280;20564;42.902;25.336;2023-07-08T08:42:29;97349.69;;;23.85;89.93
34297;BME280;20564;42.902;25.336;2023-07-08T08:44:59;97343.81;;;23.69;90.97
34297;BME280;20564;42.902;25.336;2023-07-08T08:47:54;97350.41;;;23.42;92.78
34297;BME280;20564;42.902;25.336;2023-07-08T08:50:28;97362.53;;;23.26;91.80
34297;BME280;20564;42.902;25.336;2023-07-08T08:52:57;97360.94;;;23.18;92.61
34297;BME280;20564;42.902;25.336;2023-07-08T08:55:26;97360.56;;;23.08;93.99
34297;BME280;20564;42.902;25.336;2023-07-08T08:57:56;97360.84;;;22.86;97.17
34297;BME280;20564;42.902;25.336;2023-07-08T09:06:16;97371.13;;;22.45;100.00
34297;BME280;20564;42.902;25.336;2023-07-08T09:08:46;97367.84;;;22.29;100.00
34297;BME280;20564;42.902;25.336;2023-07-08T09:11:21;97368.28;;;22.06;100.00
34297;BME280;20564;42.902;25.336;2023-07-08T09:13:51;97375.34;;;21.94;100.00
34297;BME280;20564;42.902;25.336;2023-07-08T09:16:45;97376.38;;;21.66;100.00
34297;BME280;20564;42.902;25.336;2023-07-08T09:19:23;97368.34;;;21.47;100.00
34297;BME280;20564;42.902;25.336;2023-07-08T09:22:02;97376.13;;;21.35;100.00
34297;BME280;20564;42.902;25.336;2023-07-08T09:24:33;97378.78;;;21.35;100.00
34297;BME280;20564;42.902;25.336;2023-07-08T09:27:02;97379.38;;;21.30;100.00
34297;BME280;20564;42.902;25.336;2023-07-08T09:29:32;97375.28;;;21.34;100.00
34297;BME280;20564;42.902;25.336;2023-07-08T09:32:15;97369.13;;;21.40;100.00
34297;BME280;20564;42.902;25.336;2023-07-08T09:34:47;97364.63;;;21.48;100.00
34297;BME280;20564;42.902;25.336;2023-07-08T09:37:34;97363.19;;;21.58;100.00
34297;BME280;20564;42.902;25.336;2023-07-08T09:40:22;97353.06;;;21.74;100.00
34297;BME280;20564;42.902;25.336;2023-07-08T09:42:52;97346.47;;;21.83;100.00
34297;BME280;20564;42.902;25.336;2023-07-08T09:45:23;97334.50;;;21.92;100.00
34297;BME280;20564;42.902;25.336;2023-07-08T09:47:55;97329.56;;;21.96;100.00
34297;BME280;20564;42.902;25.336;2023-07-08T09:50:27;97334.50;;;21.99;100.00
34297;BME280;20564;42.902;25.336;2023-07-08T09:52:56;97332.41;;;22.01;100.00
34297;BME280;20564;42.902;25.336;2023-07-08T09:55:31;97334.28;;;22.00;100.00
34297;BME280;20564;42.902;25.336;2023-07-08T09:57:59;97335.53;;;21.98;100.00
34297;BME280;20564;42.902;25.336;2023-07-08T10:00:34;97334.28;;;22.00;100.00
34297;BME280;20564;42.902;25.336;2023-07-08T10:03:11;97325.63;;;22.05;100.00
34297;BME280;20564;42.902;25.336;2023-07-08T10:05:42;97328.69;;;22.15;100.00
34297;BME280;20564;42.902;25.336;2023-07-08T10:08:22;97332.59;;;22.26;100.00
34297;BME280;20564;42.902;25.336;2023-07-08T10:11:26;97338.75;;;22.33;100.00
34297;BME280;20564;42.902;25.336;2023-07-08T10:13:57;97341.44;;;22.39;100.00
34297;BME280;20564;42.902;25.336;2023-07-08T10:16:39;97341.19;;;22.48;100.00
34297;BME280;20564;42.902;25.336;2023-07-08T10:19:17;97347.78;;;22.52;100.00
34297;BME280;20564;42.902;25.336;2023-07-08T10:22:04;97359.16;;;22.41;100.00
34297;BME280;20564;42.902;25.336;2023-07-08T10:30:32;97407.91;;;21.58;100.00
34297;BME280;20564;42.902;25.336;2023-07-08T10:53:09;97382.56;;;19.82;100.00
34297;BME280;20564;42.902;25.336;2023-07-08T10:55:57;97394.97;;;19.89;100.00
34297;BME280;20564;42.902;25.336;2023-07-08T11:06:51;97386.66;;;20.06;100.00
34297;BME280;20564;42.902;25.336;2023-07-08T11:09:30;97399.84;;;20.14;100.00
34297;BME280;20564;42.902;25.336;2023-07-08T11:15:06;97409.66;;;20.35;100.00
34297;BME280;20564;42.902;25.336;2023-07-08T11:17:49;97414.78;;;20.30;100.00
34297;BME280;20564;42.902;25.336;2023-07-08T11:26:32;97430.50;;;20.11;100.00
34297;BME280;20564;42.902;25.336;2023-07-08T11:29:01;97431.91;;;20.14;100.00
34297;BME280;20564;42.902;25.336;2023-07-08T11:31:31;97436.88;;;20.17;100.00
34297;BME280;20564;42.902;25.336;2023-07-08T11:34:00;97422.94;;;20.21;100.00
34297;BME280;20564;42.902;25.336;2023-07-08T11:36:30;97423.38;;;20.25;100.00
34297;BME280;20564;42.902;25.336;2023-07-08T11:38:58;97423.78;;;20.29;100.00
34297;BME280;20564;42.902;25.336;2023-07-08T11:41:33;97420.13;;;20.36;100.00
34297;BME280;20564;42.902;25.336;2023-07-08T11:44:04;97424.13;;;20.47;100.00
34297;BME280;20564;42.902;25.336;2023-07-08T11:46:33;97422.94;;;20.50;100.00
34297;BME280;20564;42.902;25.336;2023-07-08T11:49:14;97422.97;;;20.56;100.00
34297;BME280;20564;42.902;25.336;2023-07-08T11:51:44;97429.38;;;20.62;100.00
34297;BME280;20564;42.902;25.336;2023-07-08T11:59:39;97418.97;;;20.80;100.00
34297;BME280;20564;42.902;25.336;2023-07-08T12:02:18;97410.94;;;20.80;100.00
34297;BME280;20564;42.902;25.336;2023-07-08T12:04:58;97414.66;;;20.79;100.00
34297;BME280;20564;42.902;25.336;2023-07-08T12:07:50;97421.25;;;20.83;100.00
34297;BME280;20564;42.902;25.336;2023-07-08T12:10:33;97418.00;;;20.88;100.00
34297;BME280;20564;42.902;25.336;2023-07-08T12:13:03;97430.97;;;20.98;100.00
34297;BME280;20564;42.902;25.336;2023-07-08T12:15:32;97422.16;;;21.04;100.00
34297;BME280;20564;42.902;25.336;2023-07-08T12:18:04;97420.78;;;21.21;100.00
34297;BME280;20564;42.902;25.336;2023-07-08T12:20:39;97415.88;;;21.38;100.00
34297;BME280;20564;42.902;25.336;2023-07-08T12:23:19;97409.09;;;21.49;100.00
34297;BME280;20564;42.902;25.336;2023-07-08T12:25:49;97411.56;;;21.57;100.00
34297;BME280;20564;42.902;25.336;2023-07-08T12:28:18;97404.38;;;21.64;100.00
34297;BME280;20564;42.902;25.336;2023-07-08T12:30:48;97414.47;;;21.82;100.00
34297;BME280;20564;42.902;25.336;2023-07-08T12:33:25;97416.53;;;22.00;100.00
34297;BME280;20564;42.902;25.336;2023-07-08T12:35:53;97422.75;;;22.27;100.00
34297;BME280;20564;42.902;25.336;2023-07-08T12:41:02;97415.97;;;22.89;100.00
34297;BME280;20564;42.902;25.336;2023-07-08T12:43:34;97407.44;;;23.12;100.00
34297;BME280;20564;42.902;25.336;2023-07-08T12:46:00;97401.22;;;23.43;100.00
34297;BME280;20564;42.902;25.336;2023-07-08T12:48:34;97400.72;;;23.59;100.00
34297;BME280;20564;42.902;25.336;2023-07-08T12:51:06;97387.66;;;23.70;100.00
34297;BME280;20564;42.902;25.336;2023-07-08T12:53:33;97391.56;;;23.99;100.00
34297;BME280;20564;42.902;25.336;2023-07-08T12:56:01;97396.38;;;24.34;100.00
34297;BME280;20564;42.902;25.336;2023-07-08T12:58:32;97382.81;;;24.65;95.58
34297;BME280;20564;42.902;25.336;2023-07-08T13:01:02;97380.28;;;24.70;94.92
34297;BME280;20564;42.902;25.336;2023-07-08T13:03:39;97388.34;;;24.52;94.71
34297;BME280;20564;42.902;25.336;2023-07-08T13:06:09;97393.53;;;24.28;94.63
34297;BME280;20564;42.902;25.336;2023-07-08T13:08:38;97396.66;;;24.07;95.52
34297;BME280;20564;42.902;25.336;2023-07-08T13:11:06;97389.84;;;23.79;97.15
34297;BME280;20564;42.902;25.336;2023-07-08T13:13:36;97392.03;;;23.57;98.97
34297;BME280;20564;42.902;25.336;2023-07-08T13:16:04;97393.47;;;23.28;100.00
34297;BME280;20564;42.902;25.336;2023-07-08T13:18:36;97390.13;;;23.01;100.00
34297;BME280;20564;42.902;25.336;2023-07-08T13:21:05;97397.41;;;22.81;100.00
34297;BME280;20564;42.902;25.336;2023-07-08T13:23:33;97391.91;;;22.56;100.00
34297;BME280;20564;42.902;25.336;2023-07-08T13:26:21;97403.09;;;22.53;100.00
34297;BME280;20564;42.902;25.336;2023-07-08T13:28:48;97400.44;;;22.46;100.00
34297;BME280;20564;42.902;25.336;2023-07-08T13:31:19;97406.22;;;22.36;100.00
34297;BME280;20564;42.902;25.336;2023-07-08T13:33:52;97412.44;;;22.17;100.00
34297;BME280;20564;42.902;25.336;2023-07-08T13:36:40;97409.53;;;22.05;100.00
34297;BME280;20564;42.902;25.336;2023-07-08T13:39:12;97408.72;;;21.91;100.00
34297;BME280;20564;42.902;25.336;2023-07-08T13:41:44;97411.63;;;21.83;100.00
34297;BME280;20564;42.902;25.336;2023-07-08T13:44:12;97408.94;;;21.77;100.00
34297;BME280;20564;42.902;25.336;2023-07-08T13:46:45;97417.78;;;21.71;100.00
34297;BME280;20564;42.902;25.336;2023-07-08T13:51:51;97421.06;;;21.59;100.00
34297;BME280;20564;42.902;25.336;2023-07-08T13:54:25;97423.97;;;21.58;100.00
34297;BME280;20564;42.902;25.336;2023-07-08T13:56:53;97421.06;;;21.53;100.00
34297;BME280;20564;42.902;25.336;2023-07-08T13:59:25;97407.91;;;21.58;100.00
34297;BME280;20564;42.902;25.336;2023-07-08T14:01:54;97409.53;;;21.65;100.00